Time;durP1;ratioP1;P1;durP2;ratioP2;P2;SDS_P1;SDS_P2;PMS_P1;PMS_P2;Temp;Humidity;BMP_temperature;BMP_pressure;BME280_temperature;BME280_humidity;BME280_pressure;Samples;Min_cycle;Max_cycle;Signal;HPM_P1;HPM_P2
2023/07/31 00:00:24;;;;;;;3.30;1.20;;;;;;;20.96;74.86;100522.75;107559;1254;108716;-62
2023/07/31 00:03:12;;;;;;;3.20;1.10;;;;;;;20.72;75.32;100538.79;107587;1256;96471;-61
2023/07/31 00:05:41;;;;;;;1.40;1.20;;;;;;;20.53;75.12;100535.14;107647;1254;96350;-61
2023/07/31 00:08:09;;;;;;;5.20;2.70;;;;;;;20.47;74.73;100536.02;107603;1254;110234;-62
2023/07/31 00:10:37;;;;;;;4.30;1.40;;;;;;;20.51;75.24;100543.42;107567;1254;109616;-62
2023/07/31 00:13:06;;;;;;;2.20;1.00;;;;;;;20.50;75.28;100544.42;107589;1254;108268;-62
2023/07/31 00:15:34;;;;;;;3.00;1.50;;;;;;;20.51;75.57;100547.58;107603;1254;96914;-62
2023/07/31 00:18:02;;;;;;;4.40;1.40;;;;;;;20.47;75.69;100549.89;107583;1254;96466;-60
2023/07/31 00:20:31;;;;;;;1.50;1.30;;;;;;;20.45;75.44;100544.83;107514;1254;110487;-60
2023/07/31 00:22:59;;;;;;;2.90;1.10;;;;;;;20.50;75.45;100537.33;107528;1254;108993;-61
2023/07/31 00:25:27;;;;;;;2.10;1.20;;;;;;;20.57;75.28;100534.31;107458;1254;107195;-62
2023/07/31 00:27:55;;;;;;;3.50;1.00;;;;;;;20.66;74.98;100537.52;107560;1254;96571;-61
2023/07/31 00:30:25;;;;;;;4.30;1.10;;;;;;;20.73;74.90;100528.24;107544;1254;96376;-60
2023/07/31 00:32:54;;;;;;;4.00;1.50;;;;;;;20.78;74.56;100525.52;107503;1257;110418;-61
2023/07/31 00:35:22;;;;;;;4.10;1.40;;;;;;;20.82;74.47;100523.17;107531;1254;109751;-61
2023/07/31 00:37:51;;;;;;;2.40;1.10;;;;;;;20.86;74.15;100520.50;107519;1254;107702;-62
2023/07/31 00:40:19;;;;;;;1.90;1.00;;;;;;;20.86;74.08;100514.75;107561;1255;96619;-61
2023/07/31 00:42:47;;;;;;;2.30;1.10;;;;;;;20.90;74.38;100512.81;107615;1257;97016;-62
2023/07/31 00:45:16;;;;;;;2.50;1.60;;;;;;;20.88;74.19;100509.62;107565;1256;110327;-62
2023/07/31 00:47:44;;;;;;;8.70;3.80;;;;;;;20.87;74.27;100508.11;107563;1255;109994;-62
2023/07/31 00:50:15;;;;;;;3.30;1.40;;;;;;;20.88;74.26;100509.08;107508;1256;107842;-61
2023/07/31 00:52:43;;;;;;;2.00;1.20;;;;;;;20.89;74.07;100510.71;107471;1254;96503;-61
2023/07/31 00:55:11;;;;;;;7.60;1.20;;;;;;;20.90;74.16;100518.50;107525;1256;96475;-62
2023/07/31 00:57:41;;;;;;;4.70;1.20;;;;;;;20.91;74.00;100520.02;107560;1256;110729;-61
2023/07/31 01:00:10;;;;;;;4.30;1.50;;;;;;;20.87;73.82;100517.36;107666;1255;109858;-61
2023/07/31 01:02:39;;;;;;;6.00;1.10;;;;;;;20.85;74.02;100511.90;107634;1255;107608;-61
2023/07/31 01:05:08;;;;;;;2.80;1.30;;;;;;;20.84;73.90;100506.36;107633;1256;95707;-60
2023/07/31 01:08:04;;;;;;;2.80;1.20;;;;;;;20.85;73.88;100503.32;107635;1255;96791;-62
2023/07/31 01:10:47;;;;;;;4.50;1.10;;;;;;;20.86;74.07;100503.09;107572;1254;110420;-62
2023/07/31 01:13:17;;;;;;;4.70;1.30;;;;;;;20.86;74.05;100496.92;107559;1254;109916;-61
2023/07/31 01:15:45;;;;;;;2.10;1.00;;;;;;;20.85;74.15;100499.78;107549;1255;106315;-60
2023/07/31 01:18:14;;;;;;;4.30;1.20;;;;;;;20.84;73.98;100500.63;107558;1253;96558;-60
2023/07/31 01:20:47;;;;;;;6.00;1.50;;;;;;;20.82;73.86;100505.34;107612;1256;96564;-61
2023/07/31 01:23:21;;;;;;;;;;;;;;;20.77;74.08;100507.86;107601;1254;110555;-62
2023/07/31 01:26:16;;;;;;;4.30;1.20;;;;;;;20.70;74.07;100510.98;107639;1255;109671;-62
2023/07/31 01:28:55;;;;;;;3.20;1.20;;;;;;;20.67;74.14;100513.30;107598;1253;107728;-61
2023/07/31 01:31:25;;;;;;;3.70;1.40;;;;;;;20.70;74.48;100512.63;107593;1254;96512;-64
2023/07/31 01:33:57;;;;;;;4.60;1.40;;;;;;;20.70;74.28;100511.86;107608;1257;96990;-62
2023/07/31 01:36:28;;;;;;;6.80;1.30;;;;;;;20.64;74.82;100513.38;107534;1254;110258;-61
2023/07/31 01:39:00;;;;;;;3.20;1.40;;;;;;;20.52;75.02;100511.89;107521;1254;109530;-62
2023/07/31 01:41:29;;;;;;;2.40;1.10;;;;;;;20.42;75.60;100512.84;107563;1255;106975;-62
2023/07/31 01:43:57;;;;;;;4.10;1.30;;;;;;;20.33;76.06;100512.49;107521;1251;96485;-62
2023/07/31 01:46:26;;;;;;;2.50;1.00;;;;;;;20.27;75.82;100514.11;107597;1254;96484;-60
2023/07/31 01:48:55;;;;;;;3.20;1.20;;;;;;;20.29;76.28;100518.76;107595;1255;110801;-61
2023/07/31 01:51:24;;;;;;;2.90;1.60;;;;;;;20.35;76.19;100521.27;107542;1255;109422;-61
2023/07/31 01:53:53;;;;;;;2.40;1.20;;;;;;;20.41;76.08;100519.44;107536;1254;108268;-60
2023/07/31 01:56:21;;;;;;;7.40;1.20;;;;;;;20.48;75.99;100521.59;107551;1256;96939;-60
2023/07/31 01:58:49;;;;;;;4.10;1.10;;;;;;;20.54;76.03;100517.63;107602;1256;96471;-61
2023/07/31 02:01:18;;;;;;;3.00;1.20;;;;;;;20.59;76.02;100516.56;107613;1254;110734;-62
2023/07/31 02:03:46;;;;;;;4.80;1.50;;;;;;;20.60;76.01;100519.56;107611;1255;109260;-61
2023/07/31 02:06:15;;;;;;;1.90;1.20;;;;;;;20.58;75.67;100517.38;107601;1257;108783;-60
2023/07/31 02:08:44;;;;;;;3.20;1.20;;;;;;;20.56;75.48;100516.62;107601;1252;96469;-60
2023/07/31 02:11:13;;;;;;;10.50;1.40;;;;;;;20.57;75.90;100515.22;107568;1261;96497;-61
2023/07/31 02:13:42;;;;;;;3.20;1.30;;;;;;;20.58;75.85;100521.81;107580;1256;110550;-61
2023/07/31 02:16:10;;;;;;;6.70;1.40;;;;;;;20.61;75.88;100521.90;107569;1254;109856;-61
2023/07/31 02:18:38;;;;;;;1.50;1.10;;;;;;;20.64;75.98;100519.23;107550;1257;107759;-60
2023/07/31 02:21:07;;;;;;;3.70;1.40;;;;;;;20.66;75.92;100526.83;107576;1251;96499;-61
2023/07/31 02:23:36;;;;;;;1.20;1.10;;;;;;;20.68;75.86;100524.30;107592;1251;96987;-61
2023/07/31 02:26:04;;;;;;;2.90;1.40;;;;;;;20.70;75.97;100522.55;107603;1255;109983;-61
2023/07/31 02:28:32;;;;;;;3.00;1.40;;;;;;;20.69;76.00;100522.23;107627;1252;109491;-61
2023/07/31 02:31:01;;;;;;;8.40;1.60;;;;;;;20.67;75.97;100520.60;107494;1254;107678;-61
2023/07/31 02:33:30;;;;;;;4.10;2.60;;;;;;;20.68;75.97;100524.13;107577;1256;96490;-62
2023/07/31 02:35:59;;;;;;;8.50;2.20;;;;;;;20.59;76.51;100526.95;107616;1254;97062;-61
2023/07/31 02:38:27;;;;;;;2.70;1.30;;;;;;;20.47;76.26;100526.77;107571;1255;110450;-61
2023/07/31 02:40:56;;;;;;;3.00;1.60;;;;;;;20.39;76.60;100524.02;107613;1251;109759;-61
2023/07/31 02:43:24;;;;;;;1.80;1.40;;;;;;;20.30;77.19;100528.30;107588;1253;108019;-63
2023/07/31 02:45:53;;;;;;;2.80;1.60;;;;;;;20.27;77.31;100538.33;107555;1254;96469;-61
2023/07/31 02:48:21;;;;;;;3.30;2.40;;;;;;;20.26;77.42;100541.05;107642;1257;96445;-64
2023/07/31 02:50:50;;;;;;;2.80;2.00;;;;;;;20.23;78.27;100544.95;107534;1254;110957;-62
2023/07/31 02:53:18;;;;;;;4.20;2.80;;;;;;;20.19;78.26;100549.77;107509;1255;110058;-62
2023/07/31 02:55:46;;;;;;;4.20;2.50;;;;;;;20.16;78.52;100554.36;107542;1255;108122;-62
2023/07/31 02:58:15;;;;;;;7.30;1.70;;;;;;;20.14;78.60;100549.73;107534;1254;96354;-62
2023/07/31 03:00:44;;;;;;;4.20;2.20;;;;;;;20.15;79.16;100546.52;107516;1254;96422;-62
2023/07/31 03:03:12;;;;;;;7.00;1.80;;;;;;;20.09;79.44;100541.39;107528;1256;111102;-62
2023/07/31 03:05:40;;;;;;;7.60;2.20;;;;;;;20.06;79.58;100539.23;107516;1254;108141;-61
2023/07/31 03:08:09;;;;;;;2.80;1.80;;;;;;;20.05;79.72;100542.00;107515;1254;107975;-63
2023/07/31 03:10:37;;;;;;;3.40;1.70;;;;;;;20.06;79.93;100543.72;107595;1254;97806;-62
2023/07/31 03:13:06;;;;;;;5.80;1.50;;;;;;;20.04;79.88;100542.42;107581;1254;97748;-62
2023/07/31 03:15:34;;;;;;;4.40;1.70;;;;;;;20.02;80.50;100546.65;107578;1252;110791;-62
2023/07/31 03:18:02;;;;;;;2.20;1.80;;;;;;;19.94;81.28;100542.80;107593;1254;109215;-61
2023/07/31 03:20:31;;;;;;;4.30;2.80;;;;;;;19.90;80.77;100548.83;107450;1253;107697;-62
2023/07/31 03:22:59;;;;;;;3.00;1.70;;;;;;;19.90;80.69;100545.05;107456;1254;97807;-64
2023/07/31 03:25:28;;;;;;;1.90;1.60;;;;;;;19.92;80.78;100546.33;107596;1254;98364;-61
2023/07/31 03:27:56;;;;;;;7.10;2.30;;;;;;;19.91;80.42;100547.52;107513;1255;112235;-61
2023/07/31 03:30:25;;;;;;;5.00;1.70;;;;;;;19.93;80.30;100544.48;107601;1256;109795;-62
2023/07/31 03:32:54;;;;;;;3.20;1.80;;;;;;;19.98;80.10;100543.87;107635;1254;108300;-62
2023/07/31 03:35:22;;;;;;;2.50;1.70;;;;;;;20.01;80.05;100548.50;107590;1257;97694;-62
2023/07/31 03:37:51;;;;;;;3.00;1.70;;;;;;;20.03;79.59;100551.36;107521;1254;97819;-62
2023/07/31 03:40:19;;;;;;;6.20;1.60;;;;;;;20.07;79.60;100552.84;107577;1254;111910;-64
2023/07/31 03:42:47;;;;;;;7.20;2.20;;;;;;;20.05;79.69;100555.86;107521;1254;109269;-62
2023/07/31 03:45:15;;;;;;;3.80;2.70;;;;;;;20.01;79.49;100556.77;107418;1254;107135;-61
2023/07/31 03:47:44;;;;;;;10.30;5.50;;;;;;;20.05;79.42;100558.64;107471;1254;97831;-61
2023/07/31 03:50:12;;;;;;;4.90;2.70;;;;;;;20.13;79.58;100556.77;107548;1254;97707;-62
2023/07/31 03:52:41;;;;;;;6.00;2.30;;;;;;;20.18;79.11;100557.71;107527;1254;111806;-63
2023/07/31 03:55:09;;;;;;;3.60;1.60;;;;;;;20.23;78.74;100563.44;107629;1254;109788;-63
2023/07/31 03:57:38;;;;;;;7.30;1.80;;;;;;;20.26;78.58;100564.88;107552;1251;107841;-62
2023/07/31 04:00:07;;;;;;;7.60;1.80;;;;;;;20.31;78.45;100565.70;107618;1251;97810;-61
2023/07/31 04:02:42;;;;;;;12.70;2.00;;;;;;;20.36;78.33;100563.44;107584;1254;97792;-61
2023/07/31 04:05:11;;;;;;;6.10;1.80;;;;;;;20.43;78.14;100563.88;107586;1255;112138;-62
2023/07/31 04:07:39;;;;;;;2.60;1.90;;;;;;;20.49;78.26;100561.28;107600;1251;110261;-63
2023/07/31 04:10:08;;;;;;;6.80;2.30;;;;;;;20.50;77.83;100557.67;107579;1251;107673;-62
2023/07/31 04:12:40;;;;;;;6.70;2.10;;;;;;;20.57;77.65;100556.00;107526;1251;97864;-64
2023/07/31 04:15:09;;;;;;;7.90;2.20;;;;;;;20.66;77.50;100560.84;107606;1251;97711;-62
2023/07/31 04:17:37;;;;;;;5.80;1.80;;;;;;;20.72;76.93;100562.93;107599;1251;112068;-62
2023/07/31 04:20:06;;;;;;;12.60;1.70;;;;;;;20.79;76.98;100567.37;107558;1251;110288;-62
2023/07/31 04:22:34;;;;;;;130.10;9.50;;;;;;;20.85;76.64;100563.38;107617;1251;107320;-63
2023/07/31 04:25:03;;;;;;;6.90;2.00;;;;;;;20.88;76.33;100563.38;107505;1253;97896;-62
2023/07/31 04:27:32;;;;;;;8.20;1.60;;;;;;;20.87;75.93;100563.35;107574;1253;97717;-61
2023/07/31 04:30:01;;;;;;;4.20;1.90;;;;;;;20.90;76.00;100566.41;107563;1254;112274;-62
2023/07/31 04:32:30;;;;;;;4.70;1.40;;;;;;;20.89;75.69;100572.72;107598;1254;109901;-63
2023/07/31 04:34:58;;;;;;;5.90;1.50;;;;;;;20.90;75.66;100572.63;107539;1254;107417;-61
2023/07/31 04:37:27;;;;;;;6.80;1.70;;;;;;;20.91;75.64;100580.42;107523;1256;97851;-64
2023/07/31 04:39:55;;;;;;;3.20;1.60;;;;;;;20.92;75.59;100584.48;107563;1254;98332;-64
2023/07/31 04:42:24;;;;;;;1.70;1.20;;;;;;;20.91;75.45;100587.41;107545;1253;111848;-63
2023/07/31 04:44:53;;;;;;;2.50;1.40;;;;;;;20.90;75.54;100591.83;107487;1254;108823;-64
2023/07/31 04:47:21;;;;;;;2.00;1.20;;;;;;;20.84;75.08;100596.02;107529;1253;108264;-62
2023/07/31 04:49:49;;;;;;;2.80;1.50;;;;;;;20.77;75.21;100599.83;107497;1254;97944;-61
2023/07/31 04:52:18;;;;;;;6.00;1.70;;;;;;;20.71;75.52;100602.98;107554;1254;97724;-63
2023/07/31 04:54:46;;;;;;;7.10;1.70;;;;;;;20.70;76.07;100604.92;107594;1251;112835;-63
2023/07/31 04:57:15;;;;;;;10.60;2.40;;;;;;;20.66;76.52;100604.79;107548;1254;108336;-61
2023/07/31 04:59:43;;;;;;;7.40;2.60;;;;;;;20.59;76.74;100611.67;107580;1254;108179;-60
2023/07/31 05:02:13;;;;;;;11.70;2.40;;;;;;;20.55;78.06;100615.20;107531;1254;97931;-62
2023/07/31 05:04:41;;;;;;;31.20;4.60;;;;;;;20.43;78.63;100617.34;107584;1254;97877;-62
2023/07/31 05:07:10;;;;;;;10.80;3.30;;;;;;;20.25;81.11;100615.63;107624;1251;111361;-61
2023/07/31 05:09:39;;;;;;;11.60;3.40;;;;;;;20.11;81.37;100616.89;107611;1254;108409;-62
2023/07/31 05:12:09;;;;;;;13.00;2.90;;;;;;;19.99;82.06;100614.86;107574;1254;107174;-63
2023/07/31 05:14:38;;;;;;;83.20;55.30;;;;;;;19.91;83.81;100616.83;107608;1254;97880;-62
2023/07/31 05:17:06;;;;;;;15.90;4.80;;;;;;;19.89;84.81;100622.73;107568;1254;97905;-62
2023/07/31 05:19:34;;;;;;;17.30;4.10;;;;;;;19.86;86.55;100628.55;107607;1254;110461;-62
2023/07/31 05:22:03;;;;;;;16.00;2.70;;;;;;;19.80;87.98;100632.27;107549;1252;109662;-62
2023/07/31 05:24:35;;;;;;;11.70;2.40;;;;;;;19.76;89.95;100633.66;107474;1254;108824;-62
2023/07/31 05:27:24;;;;;;;10.80;2.80;;;;;;;19.68;90.87;100631.10;107597;1254;97841;-64
2023/07/31 05:29:53;;;;;;;8.40;2.30;;;;;;;19.51;90.65;100631.75;107385;1254;98366;-63
2023/07/31 05:32:25;;;;;;;8.00;2.10;;;;;;;19.37;90.90;100634.91;107589;1253;111793;-60
2023/07/31 05:34:53;;;;;;;7.10;2.60;;;;;;;19.35;92.77;100636.42;107581;1254;109535;-62
2023/07/31 05:37:22;;;;;;;10.70;1.90;;;;;;;19.32;93.24;100637.90;107529;1254;108338;-62
2023/07/31 05:39:52;;;;;;;4.60;1.70;;;;;;;19.21;93.32;100641.21;107600;1254;97832;-64
2023/07/31 05:42:20;;;;;;;5.70;1.90;;;;;;;19.20;94.50;100649.38;107641;1253;97826;-63
2023/07/31 05:44:48;;;;;;;4.70;2.10;;;;;;;19.25;96.12;100649.46;107551;1253;111301;-62
2023/07/31 05:47:16;;;;;;;7.80;2.10;;;;;;;19.29;95.57;100649.71;107524;1254;109079;-62
2023/07/31 05:49:49;;;;;;;3.10;1.30;;;;;;;19.28;95.36;100648.52;107593;1254;107769;-63
2023/07/31 05:52:24;;;;;;;5.10;1.70;;;;;;;19.27;95.80;100650.78;107570;1254;97682;-60
2023/07/31 05:54:53;;;;;;;2.40;1.40;;;;;;;19.27;96.01;100650.19;107507;1254;97698;-64
2023/07/31 05:57:21;;;;;;;5.30;1.60;;;;;;;19.27;95.78;100654.67;107401;1253;111377;-63
2023/07/31 05:59:49;;;;;;;2.60;1.60;;;;;;;19.23;95.76;100655.70;107613;1254;109624;-62
2023/07/31 06:02:17;;;;;;;4.10;1.70;;;;;;;19.24;97.11;100650.12;107543;1251;107969;-61
2023/07/31 06:04:46;;;;;;;3.50;1.80;;;;;;;19.28;98.33;100652.73;107533;1251;97821;-63
2023/07/31 06:07:14;;;;;;;9.30;2.60;;;;;;;19.34;98.81;100651.43;107527;1254;97911;-62
2023/07/31 06:09:43;;;;;;;4.50;1.80;;;;;;;19.36;99.28;100659.67;107586;1251;112144;-61
2023/07/31 06:12:11;;;;;;;5.50;2.20;;;;;;;19.37;99.83;100658.71;107502;1254;109681;-60
2023/07/31 06:14:40;;;;;;;6.40;1.70;;;;;;;19.40;99.97;100657.77;107535;1250;107740;-61
2023/07/31 06:17:08;;;;;;;4.00;1.80;;;;;;;19.40;100.00;100661.42;107531;1254;97703;-63
2023/07/31 06:19:36;;;;;;;4.10;2.70;;;;;;;19.38;100.00;100665.23;107577;1251;97806;-61
2023/07/31 06:22:05;;;;;;;6.30;3.00;;;;;;;19.35;100.00;100667.83;107523;1251;111886;-62
2023/07/31 06:24:33;;;;;;;4.70;2.30;;;;;;;19.25;99.82;100669.85;107526;1255;109645;-62
2023/07/31 06:27:03;;;;;;;5.70;2.20;;;;;;;19.18;99.73;100669.88;107571;1251;108370;-61
2023/07/31 06:29:32;;;;;;;12.40;2.50;;;;;;;19.17;99.84;100670.70;107496;1251;97684;-61
2023/07/31 06:32:01;;;;;;;3.00;2.20;;;;;;;19.17;99.89;100674.66;107544;1253;98286;-61
2023/07/31 06:34:31;;;;;;;5.90;2.20;;;;;;;19.12;99.85;100677.08;107547;1253;111653;-62
2023/07/31 06:37:00;;;;;;;4.70;1.90;;;;;;;19.17;100.00;100675.98;107617;1250;109638;-61
2023/07/31 06:39:28;;;;;;;3.50;1.90;;;;;;;19.21;99.99;100678.20;107550;1251;107446;-62
2023/07/31 06:41:57;;;;;;;3.90;2.40;;;;;;;19.23;100.00;100677.38;107521;1251;97939;-62
2023/07/31 06:44:26;;;;;;;12.40;2.90;;;;;;;19.30;100.00;100673.99;107511;1253;97783;-62
2023/07/31 06:46:54;;;;;;;5.40;2.90;;;;;;;19.38;100.00;100676.77;107587;1254;112187;-62
2023/07/31 06:49:22;;;;;;;4.60;2.70;;;;;;;19.39;100.00;100679.13;107591;1254;109892;-62
2023/07/31 06:51:51;;;;;;;4.10;2.40;;;;;;;19.36;100.00;100678.77;107600;1251;108107;-62
2023/07/31 06:54:19;;;;;;;8.30;2.00;;;;;;;19.34;100.00;100677.40;107440;1251;97929;-62
2023/07/31 06:56:47;;;;;;;5.90;2.40;;;;;;;19.36;100.00;100673.77;107617;1250;97920;-62
2023/07/31 06:59:16;;;;;;;6.70;2.80;;;;;;;19.38;100.00;100671.48;107456;1251;110683;-62
2023/07/31 07:01:44;;;;;;;6.80;2.90;;;;;;;19.34;100.00;100672.27;107533;1252;109680;-62
2023/07/31 07:04:13;;;;;;;7.90;2.70;;;;;;;19.42;100.00;100672.14;107453;1251;107466;-62
2023/07/31 07:06:42;;;;;;;9.50;3.00;;;;;;;19.46;100.00;100671.20;107424;1254;97813;-62
2023/07/31 07:09:10;;;;;;;9.90;3.40;;;;;;;19.50;100.00;100669.23;107537;1254;98359;-64
2023/07/31 07:11:39;;;;;;;8.40;3.30;;;;;;;19.57;100.00;100670.31;107484;1251;111363;-62
2023/07/31 07:14:07;;;;;;;9.10;2.80;;;;;;;19.59;100.00;100672.86;107479;1254;109617;-62
2023/07/31 07:16:35;;;;;;;6.70;3.10;;;;;;;19.66;100.00;100671.39;107572;1251;107901;-62
2023/07/31 07:19:04;;;;;;;11.40;2.60;;;;;;;19.72;100.00;100672.95;107460;1251;97919;-63
2023/07/31 07:21:32;;;;;;;10.40;3.50;;;;;;;19.70;100.00;100671.38;107535;1254;97702;-62
2023/07/31 07:24:01;;;;;;;10.10;3.10;;;;;;;19.60;100.00;100671.06;107627;1254;111003;-62
2023/07/31 07:26:29;;;;;;;5.70;3.50;;;;;;;19.57;100.00;100669.57;107629;1254;109953;-64
2023/07/31 07:28:57;;;;;;;5.90;3.20;;;;;;;19.61;100.00;100671.70;107612;1256;107650;-63
2023/07/31 07:31:31;;;;;;;9.30;3.00;;;;;;;19.58;100.00;100671.30;107591;1254;97820;-63
2023/07/31 07:34:00;;;;;;;7.00;3.00;;;;;;;19.60;100.00;100669.59;107634;1254;97717;-63
2023/07/31 07:36:34;;;;;;;15.40;3.90;;;;;;;19.59;100.00;100671.52;107557;1251;111673;-62
2023/07/31 07:39:02;;;;;;;17.70;3.70;;;;;;;19.71;100.00;100676.73;107509;1254;109191;-62
2023/07/31 07:41:30;;;;;;;6.40;3.30;;;;;;;19.80;100.00;100680.14;107448;1251;108425;-62
2023/07/31 07:43:59;;;;;;;5.50;3.00;;;;;;;19.78;100.00;100685.53;107478;1251;97677;-63
2023/07/31 07:46:27;;;;;;;6.50;4.00;;;;;;;19.78;100.00;100686.38;107503;1251;97710;-64
2023/07/31 07:48:56;;;;;;;11.90;3.30;;;;;;;19.79;100.00;100690.05;107434;1254;112233;-64
2023/07/31 07:51:26;;;;;;;11.00;3.30;;;;;;;19.80;100.00;100691.97;107467;1251;109976;-62
2023/07/31 07:53:57;;;;;;;9.60;3.90;;;;;;;19.88;100.00;100693.84;107504;1251;106392;-66
2023/07/31 07:56:27;;;;;;;5.10;2.80;;;;;;;19.93;100.00;100695.39;107583;1254;97813;-63
2023/07/31 07:58:55;;;;;;;7.00;3.00;;;;;;;19.91;100.00;100694.89;107615;1252;97841;-61
2023/07/31 08:01:24;;;;;;;13.20;3.50;;;;;;;19.91;100.00;100702.05;107502;1251;111588;-63
2023/07/31 08:03:53;;;;;;;5.10;3.40;;;;;;;19.84;100.00;100701.30;107462;1251;109269;-64
2023/07/31 08:06:22;;;;;;;4.60;2.30;;;;;;;19.80;100.00;100702.99;107555;1250;107691;-62
2023/07/31 08:08:50;;;;;;;3.80;2.30;;;;;;;19.79;99.83;100701.04;107483;1251;97813;-63
2023/07/31 08:11:18;;;;;;;3.90;1.90;;;;;;;19.75;99.72;100702.79;107484;1251;97691;-63
2023/07/31 08:13:47;;;;;;;2.60;2.30;;;;;;;19.76;100.00;100701.78;107508;1251;111726;-63
2023/07/31 08:16:15;;;;;;;3.90;1.70;;;;;;;19.73;100.00;100704.07;107488;1250;109004;-61
2023/07/31 08:18:44;;;;;;;2.40;1.90;;;;;;;19.64;99.99;100709.62;107464;1250;108377;-64
2023/07/31 08:21:13;;;;;;;3.50;1.70;;;;;;;19.48;100.00;100710.21;107476;1251;97801;-61
2023/07/31 08:23:41;;;;;;;4.40;2.10;;;;;;;19.48;100.00;100713.52;107469;1251;96718;-62
2023/07/31 08:26:17;;;;;;;2.90;2.40;;;;;;;19.45;100.00;100715.01;107544;1254;111292;-62
2023/07/31 08:28:45;;;;;;;3.20;2.10;;;;;;;19.47;100.00;100711.55;107600;1254;108345;-62
2023/07/31 08:31:13;;;;;;;5.60;2.00;;;;;;;19.55;100.00;100714.59;107582;1254;108274;-62
2023/07/31 08:33:42;;;;;;;3.50;2.00;;;;;;;19.62;100.00;100713.85;107612;1253;97957;-62
2023/07/31 08:36:10;;;;;;;4.00;2.30;;;;;;;19.58;100.00;100714.95;107513;1251;97925;-63
2023/07/31 08:38:42;;;;;;;2.40;1.90;;;;;;;19.58;100.00;100711.43;107447;1251;112287;-62
2023/07/31 08:41:13;;;;;;;4.30;2.30;;;;;;;19.71;100.00;100710.77;107478;1251;109436;-62
2023/07/31 08:44:02;;;;;;;6.10;2.30;;;;;;;19.81;100.00;100710.30;107551;1254;108663;-61
2023/07/31 08:46:59;;;;;;;1.80;1.60;;;;;;;19.85;100.00;100710.48;107488;1250;97928;-64
2023/07/31 08:49:30;;;;;;;3.10;2.00;;;;;;;19.90;100.00;100714.30;107522;1251;98378;-61
2023/07/31 08:52:02;;;;;;;2.80;1.70;;;;;;;19.93;100.00;100712.10;107565;1250;111430;-65
2023/07/31 08:54:33;;;;;;;2.60;1.70;;;;;;;19.98;100.00;100712.80;107552;1251;110526;-69
2023/07/31 08:57:02;;;;;;;2.80;1.30;;;;;;;20.08;100.00;100716.39;107502;1251;108814;-61
2023/07/31 08:59:31;;;;;;;1.90;1.70;;;;;;;20.07;99.58;100715.09;107507;1254;97829;-61
2023/07/31 09:02:10;;;;;;;3.10;1.90;;;;;;;20.08;98.76;100715.09;107530;1251;98331;-61
2023/07/31 09:04:44;;;;;;;2.60;1.70;;;;;;;20.08;97.42;100714.07;107484;1251;111308;-61
2023/07/31 09:07:16;;;;;;;10.00;3.70;;;;;;;19.99;97.02;100716.22;107484;1252;109325;-64
2023/07/31 09:09:54;;;;;;;12.80;3.50;;;;;;;20.05;99.07;100719.73;107494;1251;108258;-64
2023/07/31 09:12:25;;;;;;;29.50;18.90;;;;;;;20.02;98.11;100720.98;107320;1254;97851;-65
2023/07/31 09:14:53;;;;;;;3.50;2.70;;;;;;;20.04;99.15;100718.21;107492;1251;97816;-62
2023/07/31 09:17:36;;;;;;;6.00;2.70;;;;;;;20.07;99.74;100716.39;107528;1251;112405;-60
2023/07/31 09:20:20;;;;;;;4.60;2.70;;;;;;;20.12;99.98;100717.75;107650;1251;109968;-61
2023/07/31 09:22:50;;;;;;;4.00;2.40;;;;;;;20.15;100.00;100717.99;107544;1253;108022;-64
2023/07/31 09:25:25;;;;;;;4.50;2.60;;;;;;;20.13;99.93;100720.80;107576;1253;98477;-60
2023/07/31 09:28:06;;;;;;;6.70;2.90;;;;;;;20.05;99.80;100717.92;107571;1251;97713;-63
2023/07/31 09:30:48;;;;;;;4.40;2.30;;;;;;;20.06;99.92;100719.53;107533;1254;109293;-62
2023/07/31 09:33:22;;;;;;;3.80;2.20;;;;;;;20.18;99.51;100713.23;107583;1253;109903;-61
2023/07/31 09:35:52;;;;;;;5.60;2.20;;;;;;;20.23;99.92;100715.55;107602;1251;108621;-61
2023/07/31 09:38:21;;;;;;;3.90;2.60;;;;;;;20.24;99.97;100707.61;107486;1251;97848;-62
2023/07/31 09:40:49;;;;;;;3.00;2.40;;;;;;;20.35;100.00;100708.14;107407;1254;97860;-60
2023/07/31 09:43:22;;;;;;;8.40;3.00;;;;;;;20.51;99.76;100707.36;107612;1251;111981;-61
2023/07/31 09:45:56;;;;;;;4.60;2.90;;;;;;;20.60;98.63;100704.27;107031;1251;762589;-61
2023/07/31 09:48:27;;;;;;;3.60;2.70;;;;;;;20.64;99.33;100701.91;107506;1253;107924;-61
2023/07/31 09:50:55;;;;;;;6.50;2.40;;;;;;;20.68;99.59;100700.95;107588;1251;97821;-62
2023/07/31 09:53:30;;;;;;;3.20;2.70;;;;;;;20.76;99.75;100701.89;107549;1251;98415;-61
2023/07/31 09:55:59;;;;;;;3.80;2.70;;;;;;;20.89;99.85;100701.80;107519;1250;112427;-61
2023/07/31 09:58:29;;;;;;;2.90;2.70;;;;;;;20.95;100.00;100702.77;107626;1254;110036;-61
2023/07/31 10:00:59;;;;;;;5.10;2.80;;;;;;;21.05;100.00;100701.29;107653;1252;108303;-63
2023/07/31 10:03:29;;;;;;;4.70;2.10;;;;;;;21.10;99.75;100692.17;107609;1253;97842;-63
2023/07/31 10:06:01;;;;;;;5.20;2.80;;;;;;;21.19;99.91;100690.50;107679;1253;98376;-60
2023/07/31 10:08:36;;;;;;;5.10;2.20;;;;;;;21.41;93.74;100691.53;107631;1254;111682;-60
2023/07/31 10:11:05;;;;;;;3.10;2.40;;;;;;;21.52;92.08;100687.95;107608;1254;109995;-61
2023/07/31 10:13:34;;;;;;;3.10;2.40;;;;;;;21.69;94.31;100688.60;107558;1250;107447;-60
2023/07/31 10:16:04;;;;;;;6.60;2.80;;;;;;;21.89;94.11;100689.11;107551;1254;97794;-61
2023/07/31 10:18:33;;;;;;;6.40;2.60;;;;;;;22.13;94.47;100688.27;107610;1253;97872;-62
2023/07/31 10:21:02;;;;;;;2.60;2.30;;;;;;;22.37;92.41;100686.81;107675;1254;111745;-62
2023/07/31 10:23:31;;;;;;;7.20;2.40;;;;;;;22.52;87.01;100683.30;107635;1254;108945;-61
2023/07/31 10:26:01;;;;;;;6.90;3.00;;;;;;;22.64;87.65;100683.52;107580;1254;108260;-61
2023/07/31 10:28:31;;;;;;;5.40;2.50;;;;;;;22.84;87.92;100685.05;107536;1251;97723;-61
2023/07/31 10:31:03;;;;;;;4.20;2.10;;;;;;;23.00;86.73;100687.34;107525;1250;97612;-61
2023/07/31 10:33:32;;;;;;;5.10;2.50;;;;;;;23.09;83.23;100690.79;107622;1253;111211;-60
2023/07/31 10:36:20;;;;;;;8.60;2.40;;;;;;;23.15;83.78;100694.21;107669;1251;109090;-61
2023/07/31 10:38:50;;;;;;;4.30;2.40;;;;;;;23.23;82.52;100687.72;107504;1251;106864;-61
2023/07/31 10:41:19;;;;;;;8.90;2.70;;;;;;;23.30;81.62;100690.21;107533;1254;97810;-61
2023/07/31 10:43:54;;;;;;;2.80;2.40;;;;;;;23.35;81.68;100693.34;107507;1251;97687;-65
2023/07/31 10:46:24;;;;;;;8.10;2.50;;;;;;;23.41;82.02;100687.84;107412;1254;111722;-61
2023/07/31 10:49:01;;;;;;;3.80;2.40;;;;;;;23.49;79.97;100684.79;107595;1254;109320;-62
2023/07/31 10:51:37;;;;;;;3.60;2.00;;;;;;;23.54;79.87;100680.73;107620;1251;108155;-60
2023/07/31 10:54:14;;;;;;;10.60;2.10;;;;;;;23.61;80.02;100679.91;107512;1251;97813;-61
2023/07/31 10:56:47;;;;;;;9.40;2.60;;;;;;;23.72;79.80;100679.88;107511;1251;97717;-62
2023/07/31 10:59:17;;;;;;;3.40;2.30;;;;;;;23.84;79.27;100673.27;107531;1251;112180;-62
2023/07/31 11:01:57;;;;;;;7.60;2.70;;;;;;;23.92;76.66;100672.13;107524;1250;110006;-62
2023/07/31 11:04:27;;;;;;;8.10;2.40;;;;;;;23.98;77.35;100670.90;107538;1251;107697;-63
2023/07/31 11:07:08;;;;;;;4.30;2.00;;;;;;;24.10;76.70;100670.30;107611;1251;97865;-62
2023/07/31 11:09:37;;;;;;;4.40;2.70;;;;;;;24.21;76.53;100671.41;107422;1251;98366;-61
2023/07/31 11:12:06;;;;;;;5.80;2.40;;;;;;;24.31;76.26;100665.58;107468;1251;111564;-60
2023/07/31 11:14:34;;;;;;;4.90;2.00;;;;;;;24.36;75.58;100664.02;107505;1254;110054;-62
2023/07/31 11:17:07;;;;;;;12.70;2.30;;;;;;;24.43;75.23;100661.62;107519;1251;108252;-61
2023/07/31 11:19:37;;;;;;;14.00;2.50;;;;;;;24.47;74.64;100662.45;107634;1251;97804;-60
2023/07/31 11:22:07;;;;;;;5.70;2.40;;;;;;;24.48;72.99;100658.30;107550;1251;98341;-60